createdAt,value
2023-05-03T00:01:33.367Z,102821.13
2023-05-03T00:03:59.961Z,102828.50
2023-05-03T00:06:26.827Z,102820.28
2023-05-03T00:08:53.481Z,102828.50
2023-05-03T00:11:21.086Z,102821.28
2023-05-03T00:13:47.727Z,102813.91
2023-05-03T00:16:14.432Z,102821.28
2023-05-03T00:18:41.014Z,102812.19
2023-05-03T00:21:07.549Z,102819.56
2023-05-03T00:23:34.350Z,102817.66
2023-05-03T00:26:00.820Z,102807.72
2023-05-03T00:28:27.378Z,102803.09
2023-05-03T00:30:54.041Z,102809.59
2023-05-03T00:33:20.787Z,102808.56
2023-05-03T00:35:47.274Z,102810.47
2023-05-03T00:38:15.432Z,102812.34
2023-05-03T00:40:42.064Z,102810.59
2023-05-03T00:43:11.481Z,102801.50
2023-05-03T00:45:38.243Z,102807.84
2023-05-03T00:48:04.917Z,102810.75
2023-05-03T00:50:31.640Z,102819.84
2023-05-03T00:52:58.459Z,102818.13
2023-05-03T00:55:27.226Z,102821.72
2023-05-03T00:57:53.678Z,102818.13
2023-05-03T01:00:20.413Z,102819.13
2023-05-03T01:02:47.039Z,102820.00
2023-05-03T01:05:13.846Z,102817.25
2023-05-03T01:08:06.713Z,102818.13
2023-05-03T01:11:07.382Z,102810.91
2023-05-03T01:13:33.805Z,102811.19
2023-05-03T01:16:12.096Z,102822.00
2023-05-03T01:18:40.616Z,102819.41
2023-05-03T01:21:09.983Z,102815.81
2023-05-03T01:23:43.254Z,102821.28
2023-05-03T01:26:20.843Z,102816.81
2023-05-03T01:28:47.648Z,102813.06
2023-05-03T01:31:53.428Z,102814.09
2023-05-03T01:34:28.827Z,102817.94
2023-05-03T01:36:59.888Z,102819.81
2023-05-03T01:39:42.009Z,102828.81
2023-05-03T01:42:08.564Z,102831.66
2023-05-03T01:44:36.550Z,102826.06
2023-05-03T01:47:03.312Z,102831.66
2023-05-03T01:49:29.810Z,102827.06
2023-05-03T01:51:56.452Z,102829.81
2023-05-03T01:54:22.997Z,102824.34
2023-05-03T01:56:49.496Z,102825.31
2023-05-03T01:59:16.035Z,102820.69
2023-05-03T02:01:42.719Z,102819.81
2023-05-03T02:04:09.584Z,102826.19
2023-05-03T02:06:36.203Z,102828.91
2023-05-03T02:09:03.199Z,102822.56
2023-05-03T02:11:29.787Z,102831.81
2023-05-03T02:13:56.329Z,102824.44
2023-05-03T02:16:23.246Z,102817.22
2023-05-03T02:18:51.841Z,102824.44
2023-05-03T02:21:18.323Z,102829.06
2023-05-03T02:23:44.849Z,102829.22
2023-05-03T02:26:11.297Z,102830.06
2023-05-03T02:28:38.468Z,102826.47
2023-05-03T02:31:06.296Z,102831.09
2023-05-03T02:33:33.048Z,102828.34
2023-05-03T02:35:59.580Z,102819.25
2023-05-03T02:38:27.291Z,102817.38
2023-05-03T02:40:53.744Z,102818.38
2023-05-03T02:43:20.297Z,102824.72
2023-05-03T02:45:47.177Z,102812.03
2023-05-03T02:48:13.778Z,102817.53
2023-05-03T02:50:40.474Z,102803.81
2023-05-03T02:53:07.043Z,102802.94
2023-05-03T02:55:34.670Z,102794.72
2023-05-03T02:58:01.779Z,102787.50
2023-05-03T03:00:28.587Z,102783.91
2023-05-03T03:02:55.258Z,102780.28
2023-05-03T03:05:21.943Z,102780.28
2023-05-03T03:07:50.446Z,102772.06
2023-05-03T03:10:17.586Z,102771.19
2023-05-03T03:12:44.353Z,102773.06
2023-05-03T03:15:19.847Z,102769.31
2023-05-03T03:17:46.596Z,102755.75
2023-05-03T03:20:13.381Z,102761.25
2023-05-03T03:22:47.178Z,102767.72
2023-05-03T03:25:13.950Z,102761.38
2023-05-03T03:27:40.800Z,102770.63
2023-05-03T03:30:09.376Z,102772.34
2023-05-03T03:32:42.987Z,102784.34
2023-05-03T03:35:15.336Z,102786.22
2023-05-03T03:37:41.894Z,102795.31
2023-05-03T03:40:09.134Z,102799.91
2023-05-03T03:42:37.078Z,102799.91
2023-05-03T03:45:04.840Z,102793.56
2023-05-03T03:47:31.392Z,102788.22
2023-05-03T03:50:02.288Z,102794.59
2023-05-03T03:52:30.856Z,102795.44
2023-05-03T03:54:57.463Z,102781.88
2023-05-03T03:57:26.067Z,102779.13
2023-05-03T03:59:52.782Z,102780.16
2023-05-03T04:02:19.357Z,102780.16
2023-05-03T04:04:46.757Z,102790.25
2023-05-03T04:07:15.353Z,102782.03
2023-05-03T04:09:42.181Z,102790.25
2023-05-03T04:12:08.929Z,102789.38
2023-05-03T04:14:35.558Z,102783.91
2023-05-03T04:17:02.148Z,102788.53
2023-05-03T04:19:29.029Z,102792.13
2023-05-03T04:21:55.649Z,102798.63
2023-05-03T04:24:22.120Z,102809.59
2023-05-03T04:26:51.436Z,102805.97
2023-05-03T04:29:25.113Z,102811.63
2023-05-03T04:31:52.109Z,102808.88
2023-05-03T04:34:18.992Z,102807.00
2023-05-03T04:36:49.004Z,102817.09
2023-05-03T04:39:16.435Z,102808.88
2023-05-03T04:41:45.594Z,102811.75
2023-05-03T04:44:14.332Z,102812.63
2023-05-03T04:46:43.282Z,102809.00
2023-05-03T04:49:10.033Z,102813.50
2023-05-03T04:51:36.847Z,102822.72
2023-05-03T04:54:03.473Z,102832.84
2023-05-03T04:56:30.136Z,102825.63
2023-05-03T04:59:06.922Z,102835.72
2023-05-03T05:01:33.727Z,102838.47
2023-05-03T05:04:02.705Z,102842.06
2023-05-03T05:06:37.657Z,102847.56
2023-05-03T05:09:07.477Z,102848.41
2023-05-03T05:11:34.593Z,102851.31
2023-05-03T05:14:01.225Z,102857.66
2023-05-03T05:16:27.803Z,102857.66
2023-05-03T05:18:54.403Z,102851.31
2023-05-03T05:21:24.454Z,102864.16
2023-05-03T05:23:51.005Z,102858.66
2023-05-03T05:26:17.676Z,102866.03
2023-05-03T05:28:44.844Z,102876.97
2023-05-03T05:31:11.622Z,102876.97
2023-05-03T05:33:38.943Z,102876.97
2023-05-03T05:36:06.202Z,102876.97
2023-05-03T05:38:33.980Z,102874.25
2023-05-03T05:41:01.139Z,102864.28
2023-05-03T05:43:27.715Z,102866.03
2023-05-03T05:45:55.584Z,102872.50
2023-05-03T05:48:22.920Z,102871.66
2023-05-03T05:50:49.540Z,102879.88
2023-05-03T05:53:16.453Z,102885.22
2023-05-03T05:55:55.971Z,102885.34
2023-05-03T05:58:23.538Z,102884.50
2023-05-03T06:00:55.533Z,102889.81
2023-05-03T06:03:22.158Z,102879.88
2023-05-03T06:05:50.660Z,102888.09
2023-05-03T06:08:17.181Z,102884.50
2023-05-03T06:10:43.783Z,102884.50
2023-05-03T06:13:10.300Z,102881.75
2023-05-03T06:15:36.972Z,102878.13
2023-05-03T06:18:04.650Z,102874.38
2023-05-03T06:20:31.466Z,102877.13
2023-05-03T06:22:58.838Z,102877.13
2023-05-03T06:25:26.143Z,102879.00
2023-05-03T06:27:53.120Z,102881.75
2023-05-03T06:30:25.942Z,102881.75
2023-05-03T06:32:53.118Z,102877.13
2023-05-03T06:35:21.758Z,102882.63
2023-05-03T06:37:48.487Z,102879.00
2023-05-03T06:40:15.972Z,102875.41
2023-05-03T06:42:42.577Z,102866.31
2023-05-03T06:45:12.884Z,102863.56
2023-05-03T06:47:42.639Z,102870.78
2023-05-03T06:50:10.726Z,102879.00
2023-05-03T06:52:41.458Z,102864.44
2023-05-03T06:55:08.517Z,102866.16
2023-05-03T06:57:35.009Z,102859.81
2023-05-03T07:00:01.717Z,102854.31
2023-05-03T07:02:28.878Z,102853.31
2023-05-03T07:04:55.689Z,102841.50
2023-05-03T07:07:22.280Z,102845.25
2023-05-03T07:09:49.608Z,102852.44
2023-05-03T07:12:16.521Z,102846.09
2023-05-03T07:14:43.383Z,102848.84
2023-05-03T07:17:10.108Z,102847.84
2023-05-03T07:19:37.338Z,102846.09
2023-05-03T07:22:04.315Z,102848.84
2023-05-03T07:24:30.852Z,102852.59
2023-05-03T07:26:58.380Z,102859.81
2023-05-03T07:29:24.957Z,102854.31
2023-05-03T07:31:53.455Z,102854.31
2023-05-03T07:34:20.536Z,102858.94
2023-05-03T07:36:47.101Z,102849.72
2023-05-03T07:39:13.657Z,102846.97
2023-05-03T07:41:40.162Z,102846.09
2023-05-03T07:44:07.606Z,102846.97
2023-05-03T07:46:35.244Z,102851.59
2023-05-03T07:49:04.090Z,102846.97
2023-05-03T07:51:34.844Z,102842.34
2023-05-03T07:54:01.565Z,102842.50
2023-05-03T07:56:28.678Z,102836.00
2023-05-03T07:59:07.393Z,102832.41
2023-05-03T08:01:35.554Z,102827.78
2023-05-03T08:04:02.177Z,102816.81
2023-05-03T08:06:29.341Z,102817.69
2023-05-03T08:08:56.167Z,102818.69
2023-05-03T08:11:22.688Z,102817.69
2023-05-03T08:13:49.234Z,102807.56
2023-05-03T08:16:16.514Z,102800.38
2023-05-03T08:18:43.236Z,102807.72
2023-05-03T08:21:12.045Z,102803.97
2023-05-03T08:23:38.659Z,102802.09
2023-05-03T08:26:07.620Z,102798.50
2023-05-03T08:28:34.308Z,102809.44
2023-05-03T08:31:03.422Z,102800.22
2023-05-03T08:33:30.061Z,102804.84
2023-05-03T08:35:56.563Z,102800.38
2023-05-03T08:38:23.006Z,102799.34
2023-05-03T08:40:51.860Z,102797.47
2023-05-03T08:43:21.637Z,102794.72
2023-05-03T08:45:48.333Z,102802.97
2023-05-03T08:48:15.179Z,102802.97
2023-05-03T08:50:42.942Z,102796.47
2023-05-03T08:53:10.613Z,102806.56
2023-05-03T08:55:37.771Z,102801.94
2023-05-03T08:58:10.711Z,102799.22
2023-05-03T09:00:38.414Z,102802.81
2023-05-03T09:03:05.102Z,102792.72
2023-05-03T09:05:34.052Z,102782.75
2023-05-03T09:08:02.570Z,102779.00
2023-05-03T09:10:29.500Z,102783.63
2023-05-03T09:13:01.054Z,102792.72
2023-05-03T09:15:31.094Z,102780.88
2023-05-03T09:18:15.525Z,102784.50
2023-05-03T09:20:45.694Z,102782.91
2023-05-03T09:23:12.602Z,102792.00
2023-05-03T09:25:50.202Z,102801.09
2023-05-03T09:28:17.860Z,102809.31
2023-05-03T09:30:45.189Z,102810.19
2023-05-03T09:33:12.263Z,102804.69
2023-05-03T09:35:39.298Z,102811.03
2023-05-03T09:38:06.246Z,102801.94
2023-05-03T09:40:32.936Z,102804.69
2023-05-03T09:43:14.433Z,102798.19
2023-05-03T09:45:41.030Z,102796.47
2023-05-03T09:48:08.687Z,102793.72
2023-05-03T09:50:36.710Z,102785.50
2023-05-03T09:53:05.321Z,102788.25
2023-05-03T09:55:33.369Z,102795.59
2023-05-03T09:58:00.913Z,102787.38
2023-05-03T10:00:30.622Z,102787.38
2023-05-03T10:03:00.986Z,102781.03
2023-05-03T10:05:32.078Z,102768.19
2023-05-03T10:08:01.305Z,102775.53
2023-05-03T10:10:30.891Z,102776.41
2023-05-03T10:12:59.362Z,102779.16
2023-05-03T10:15:28.602Z,102785.50
2023-05-03T10:17:57.897Z,102780.88
2023-05-03T10:20:39.405Z,102779.00
2023-05-03T10:23:11.824Z,102780.88
2023-05-03T10:25:40.649Z,102769.06
2023-05-03T10:28:08.876Z,102779.00
2023-05-03T10:30:36.354Z,102779.00
2023-05-03T10:33:12.102Z,102776.13
2023-05-03T10:35:43.723Z,102764.28
2023-05-03T10:38:17.712Z,102764.28
2023-05-03T10:40:44.761Z,102771.66
2023-05-03T10:43:29.795Z,102767.88
2023-05-03T10:46:08.862Z,102769.78
2023-05-03T10:48:35.591Z,102786.22
2023-05-03T10:51:26.842Z,102775.25
2023-05-03T10:53:53.445Z,102777.13
2023-05-03T10:56:19.961Z,102778.00
2023-05-03T10:58:49.998Z,102776.13
2023-05-03T11:01:19.079Z,102776.97
2023-05-03T11:03:50.041Z,102768.75
2023-05-03T11:06:37.014Z,102765.00
2023-05-03T11:09:08.826Z,102764.13
2023-05-03T11:11:39.259Z,102766.88
2023-05-03T11:14:06.891Z,102755.91
2023-05-03T11:16:33.502Z,102762.25
2023-05-03T11:19:01.879Z,102753.88
2023-05-03T11:21:28.770Z,102752.00
2023-05-03T11:23:55.428Z,102751.16
2023-05-03T11:26:26.148Z,102751.16
2023-05-03T11:28:54.144Z,102742.78
2023-05-03T11:31:22.380Z,102737.28
2023-05-03T11:33:49.857Z,102736.44
2023-05-03T11:36:16.483Z,102734.56
2023-05-03T11:38:42.939Z,102735.41
2023-05-03T11:41:19.157Z,102738.00
2023-05-03T11:43:49.441Z,102727.19
2023-05-03T11:46:23.010Z,102728.06
2023-05-03T11:48:49.863Z,102723.44
2023-05-03T11:51:22.094Z,102717.09
2023-05-03T11:53:48.683Z,102711.59
2023-05-03T11:56:17.928Z,102697.91
2023-05-03T11:58:58.431Z,102708.72
2023-05-03T12:01:27.117Z,102693.28
2023-05-03T12:04:02.445Z,102697.75
2023-05-03T12:06:33.856Z,102691.25
2023-05-03T12:09:03.490Z,102684.03
2023-05-03T12:11:33.189Z,102682.16
2023-05-03T12:14:03.185Z,102683.88
2023-05-03T12:16:50.894Z,102686.47
2023-05-03T12:19:32.157Z,102679.25
2023-05-03T12:22:21.396Z,102672.91
2023-05-03T12:25:00.501Z,102663.09
2023-05-03T12:27:31.393Z,102668.59
2023-05-03T12:30:01.376Z,102670.16
2023-05-03T12:32:28.466Z,102661.94
2023-05-03T12:35:00.463Z,102669.16
2023-05-03T12:37:28.822Z,102657.31
2023-05-03T12:40:15.264Z,102648.09
2023-05-03T12:42:43.901Z,102648.09
2023-05-03T12:45:13.159Z,102648.09
2023-05-03T12:47:44.131Z,102637.97
2023-05-03T12:50:12.622Z,102636.09
2023-05-03T12:52:39.745Z,102634.22
2023-05-03T12:55:11.228Z,102620.53
2023-05-03T12:57:38.484Z,102621.38
2023-05-03T13:00:13.573Z,102616.75
2023-05-03T13:03:20.841Z,102606.81
2023-05-03T13:05:34.978Z,102595.84
2023-05-03T13:08:09.281Z,102604.94
2023-05-03T13:10:37.596Z,102607.66
2023-05-03T13:13:04.538Z,102598.44
2023-05-03T13:15:31.187Z,102594.81
2023-05-03T13:18:01.405Z,102592.94
2023-05-03T13:20:28.958Z,102586.44
2023-05-03T13:22:55.648Z,102586.44
2023-05-03T13:25:22.183Z,102576.34
2023-05-03T13:27:50.326Z,102572.59
2023-05-03T13:30:16.897Z,102562.63
2023-05-03T13:32:43.450Z,102570.72
2023-05-03T13:35:10.277Z,102568.97
2023-05-03T13:37:36.767Z,102566.09
2023-05-03T13:40:03.635Z,102569.69
2023-05-03T13:42:30.490Z,102568.81
2023-05-03T13:44:56.923Z,102554.09
2023-05-03T13:47:23.414Z,102559.59
2023-05-03T13:49:49.950Z,102550.50
2023-05-03T13:52:16.426Z,102551.34
2023-05-03T13:54:42.997Z,102544.84
2023-05-03T13:57:09.602Z,102540.22
2023-05-03T13:59:36.161Z,102528.41
2023-05-03T14:02:02.947Z,102533.72
2023-05-03T14:04:30.760Z,102527.38
2023-05-03T14:06:58.720Z,102524.50
2023-05-03T14:09:25.268Z,102526.38
2023-05-03T14:11:51.775Z,102523.63
2023-05-03T14:14:18.256Z,102520.75
2023-05-03T14:16:44.879Z,102517.16
2023-05-03T14:19:11.958Z,102510.66
2023-05-03T14:21:38.795Z,102511.53
2023-05-03T14:24:06.503Z,102502.28
2023-05-03T14:26:34.008Z,102501.25
2023-05-03T14:29:01.025Z,102501.09
2023-05-03T14:31:27.565Z,102496.47
2023-05-03T14:33:55.060Z,102503.69
2023-05-03T14:36:21.713Z,102499.06
2023-05-03T14:38:48.303Z,102494.44
2023-05-03T14:41:14.811Z,102493.28
2023-05-03T14:43:41.322Z,102485.03
2023-05-03T14:46:09.832Z,102488.50
2023-05-03T14:48:38.166Z,102485.75
2023-05-03T14:51:05.111Z,102479.94
2023-05-03T14:53:31.770Z,102468.97
2023-05-03T14:55:58.345Z,102472.44
2023-05-03T14:58:25.104Z,102472.28
2023-05-03T15:00:51.614Z,102469.38
2023-05-03T15:03:18.448Z,102466.47
2023-05-03T15:05:49.530Z,102466.19
2023-05-03T15:08:19.265Z,102463.47
2023-05-03T15:10:46.582Z,102460.56
2023-05-03T15:13:14.520Z,102466.75
2023-05-03T15:15:43.488Z,102464.88
2023-05-03T15:18:11.024Z,102458.19
2023-05-03T15:20:38.213Z,102458.91
2023-05-03T15:23:05.161Z,102462.50
2023-05-03T15:25:32.447Z,102454.97
2023-05-03T15:28:01.755Z,102462.19
2023-05-03T15:30:30.303Z,102463.75
2023-05-03T15:32:56.852Z,102460.88
2023-05-03T15:35:23.440Z,102455.22
2023-05-03T15:37:49.950Z,102454.03
2023-05-03T15:40:18.690Z,102452.16
2023-05-03T15:42:45.223Z,102444.63
2023-05-03T15:45:13.887Z,102448.94
2023-05-03T15:47:40.858Z,102446.91
2023-05-03T15:50:08.667Z,102448.47
2023-05-03T15:52:35.688Z,102443.84
2023-05-03T15:55:02.220Z,102437.16
2023-05-03T15:57:30.194Z,102443.34
2023-05-03T15:59:57.086Z,102438.72
2023-05-03T16:02:23.781Z,102436.69
2023-05-03T16:04:50.736Z,102431.91
2023-05-03T16:07:17.958Z,102428.13
2023-05-03T16:09:44.781Z,102435.19
2023-05-03T16:12:11.300Z,102435.03
2023-05-03T16:14:37.775Z,102423.88
2023-05-03T16:17:04.313Z,102427.38
2023-05-03T16:19:31.883Z,102424.47
2023-05-03T16:21:58.795Z,102426.19
2023-05-03T16:24:25.406Z,102421.38
2023-05-03T16:26:52.808Z,102420.38
2023-05-03T16:29:19.605Z,102423.81
2023-05-03T16:31:47.354Z,102417.28
2023-05-03T16:34:14.227Z,102421.75
2023-05-03T16:36:43.029Z,102412.34
2023-05-03T16:39:14.050Z,102416.81
2023-05-03T16:41:41.486Z,102414.75
2023-05-03T16:44:09.155Z,102415.47
2023-05-03T16:46:37.245Z,102417.19
2023-05-03T16:49:07.210Z,102414.28
2023-05-03T16:51:33.890Z,102405.88
2023-05-03T16:54:02.917Z,102411.22
2023-05-03T16:56:30.894Z,102412.81
2023-05-03T16:58:57.552Z,102399.75
2023-05-03T17:01:24.105Z,102402.34
2023-05-03T17:03:50.663Z,102403.75
2023-05-03T17:06:18.289Z,102397.06
2023-05-03T17:08:45.364Z,102394.69
2023-05-03T17:11:14.134Z,102400.38
2023-05-03T17:13:41.460Z,102396.97
2023-05-03T17:16:10.515Z,102393.41
2023-05-03T17:18:38.857Z,102392.44
2023-05-03T17:21:05.760Z,102398.50
2023-05-03T17:23:39.287Z,102391.31
2023-05-03T17:26:10.271Z,102392.94
2023-05-03T17:28:37.332Z,102389.16
2023-05-03T17:31:04.328Z,102384.34
2023-05-03T17:33:30.880Z,102387.28
2023-05-03T17:35:57.826Z,102384.34
2023-05-03T17:38:24.800Z,102386.91
2023-05-03T17:40:51.331Z,102387.41
2023-05-03T17:43:18.204Z,102382.72
2023-05-03T17:45:47.388Z,102377.88
2023-05-03T17:48:14.526Z,102379.25
2023-05-03T17:50:41.873Z,102383.53
2023-05-03T17:53:09.403Z,102371.16
2023-05-03T17:55:37.981Z,102375.22
2023-05-03T17:58:06.192Z,102370.38
2023-05-03T18:00:33.093Z,102367.81
2023-05-03T18:02:59.678Z,102370.03
2023-05-03T18:05:26.689Z,102362.13
2023-05-03T18:07:53.331Z,102367.94
2023-05-03T18:10:19.966Z,102364.50
2023-05-03T18:12:46.562Z,102364.81
2023-05-03T18:15:15.286Z,102359.66
2023-05-03T18:17:42.701Z,102367.22
2023-05-03T18:20:10.138Z,102355.69
2023-05-03T18:22:37.387Z,102360.50
2023-05-03T18:25:07.776Z,102354.31
2023-05-03T18:27:37.378Z,102357.22
2023-05-03T18:30:06.760Z,102356.50
2023-05-03T18:32:33.971Z,102366.81
2023-05-03T18:35:00.777Z,102365.25
2023-05-03T18:37:27.560Z,102359.88
2023-05-03T18:39:54.130Z,102361.94
2023-05-03T18:42:21.361Z,102365.88
2023-05-03T18:44:48.321Z,102356.06
2023-05-03T18:47:16.777Z,102366.19
2023-05-03T18:49:46.921Z,102369.25
2023-05-03T18:52:13.568Z,102367.53
2023-05-03T18:54:42.688Z,102367.88
2023-05-03T18:57:09.470Z,102365.28
2023-05-03T18:59:42.763Z,102369.06
2023-05-03T19:02:15.666Z,102367.50
2023-05-03T19:04:42.928Z,102373.16
2023-05-03T19:07:10.455Z,102375.03
2023-05-03T19:09:40.405Z,102373.31
2023-05-03T19:12:08.475Z,102372.56
2023-05-03T19:14:40.996Z,102378.06
2023-05-03T19:17:08.506Z,102368.28
2023-05-03T19:19:35.237Z,102370.31
2023-05-03T19:22:01.808Z,102375.81
2023-05-03T19:24:28.640Z,102378.72
2023-05-03T19:26:55.212Z,102377.00
2023-05-03T19:29:21.842Z,102377.16
2023-05-03T19:31:48.555Z,102379.03
2023-05-03T19:34:15.037Z,102369.25
2023-05-03T19:36:41.814Z,102376.63
2023-05-03T19:39:11.360Z,102375.75
2023-05-03T19:41:38.761Z,102376.78
2023-05-03T19:44:06.184Z,102371.28
2023-05-03T19:46:33.841Z,102383.28
2023-05-03T19:49:00.640Z,102389.78
2023-05-03T19:51:27.955Z,102388.06
2023-05-03T19:53:54.454Z,102381.72
2023-05-03T19:56:21.923Z,102385.31
2023-05-03T19:58:48.442Z,102384.63
2023-05-03T20:01:15.008Z,102390.13
2023-05-03T20:03:42.446Z,102387.53
2023-05-03T20:06:09.065Z,102371.22
2023-05-03T20:08:36.143Z,102375.84
2023-05-03T20:11:03.200Z,102377.75
2023-05-03T20:13:30.259Z,102372.25
2023-05-03T20:15:56.974Z,102372.25
2023-05-03T20:18:23.624Z,102377.91
2023-05-03T20:20:50.324Z,102386.13
2023-05-03T20:23:17.223Z,102379.78
2023-05-03T20:25:43.780Z,102374.44
2023-05-03T20:28:10.433Z,102375.31
2023-05-03T20:30:37.120Z,102370.84
2023-05-03T20:33:04.597Z,102365.34
2023-05-03T20:35:31.395Z,102369.97
2023-05-03T20:37:58.011Z,102362.78
2023-05-03T20:40:24.539Z,102359.00
2023-05-03T20:42:51.135Z,102359.16
2023-05-03T20:45:17.824Z,102361.91
2023-05-03T20:47:44.413Z,102356.44
2023-05-03T20:50:11.766Z,102367.41
2023-05-03T20:52:38.334Z,102353.84
2023-05-03T20:55:05.295Z,102359.31
2023-05-03T20:57:31.872Z,102357.59
2023-05-03T20:59:59.857Z,102354.84
2023-05-03T21:02:26.400Z,102351.25
2023-05-03T21:04:53.038Z,102354.84
2023-05-03T21:07:19.486Z,102351.25
2023-05-03T21:09:45.982Z,102345.75
2023-05-03T21:12:12.630Z,102355.03
2023-05-03T21:14:39.148Z,102348.66
2023-05-03T21:17:08.481Z,102343.19
2023-05-03T21:19:34.961Z,102343.19
2023-05-03T21:22:01.466Z,102339.56
2023-05-03T21:24:29.128Z,102341.47
2023-05-03T21:26:55.603Z,102343.34
2023-05-03T21:29:22.064Z,102344.19
2023-05-03T21:31:48.561Z,102340.59
2023-05-03T21:34:15.164Z,102337.16
2023-05-03T21:36:41.698Z,102334.41
2023-05-03T21:39:08.571Z,102336.13
2023-05-03T21:41:35.087Z,102332.53
2023-05-03T21:44:02.242Z,102332.53
2023-05-03T21:46:28.717Z,102333.38
2023-05-03T21:48:55.505Z,102331.66
2023-05-03T21:51:23.124Z,102328.06
2023-05-03T21:53:49.885Z,102317.09
2023-05-03T21:56:16.568Z,102318.09
2023-05-03T21:58:46.281Z,102313.47
2023-05-03T22:01:17.422Z,102308.84
2023-05-03T22:03:44.232Z,102312.63
2023-05-03T22:06:10.866Z,102311.75
2023-05-03T22:08:37.684Z,102304.53
2023-05-03T22:11:06.876Z,102305.41
2023-05-03T22:13:34.501Z,102302.66
2023-05-03T22:16:07.947Z,102295.28
2023-05-03T22:18:35.071Z,102295.47
2023-05-03T22:21:02.689Z,102297.34
2023-05-03T22:23:29.370Z,102293.72
2023-05-03T22:25:55.977Z,102302.81
2023-05-03T22:28:22.636Z,102298.19
2023-05-03T22:30:49.114Z,102286.38
2023-05-03T22:33:15.622Z,102282.75
2023-05-03T22:35:42.206Z,102283.63
2023-05-03T22:38:08.747Z,102291.84
2023-05-03T22:40:35.426Z,102281.91
2023-05-03T22:43:01.948Z,102280.00
2023-05-03T22:45:28.807Z,102283.78
2023-05-03T22:47:55.606Z,102279.16
2023-05-03T22:50:22.693Z,102280.19
2023-05-03T22:52:49.468Z,102282.91
2023-05-03T22:55:16.031Z,102288.25
2023-05-03T22:57:42.497Z,102286.53
2023-05-03T23:00:10.359Z,102281.91
2023-05-03T23:02:36.997Z,102280.19
2023-05-03T23:05:03.685Z,102281.03
2023-05-03T23:07:30.250Z,102280.19
2023-05-03T23:10:05.216Z,102277.44
2023-05-03T23:12:32.315Z,102278.47
2023-05-03T23:14:58.857Z,102282.91
2023-05-03T23:17:25.551Z,102281.19
2023-05-03T23:19:52.077Z,102274.84
2023-05-03T23:22:18.628Z,102277.59
2023-05-03T23:24:45.053Z,102272.97
2023-05-03T23:27:13.032Z,102272.09
2023-05-03T23:29:39.993Z,102275.72
2023-05-03T23:32:07.146Z,102277.59
2023-05-03T23:34:34.009Z,102274.84
2023-05-03T23:37:00.633Z,102269.38
2023-05-03T23:39:27.664Z,102273.13
2023-05-03T23:41:54.221Z,102263.00
2023-05-03T23:44:21.364Z,102262.00
2023-05-03T23:46:47.831Z,102252.03
2023-05-03T23:49:14.359Z,102245.69
2023-05-03T23:51:40.873Z,102249.47
2023-05-03T23:54:07.390Z,102236.59
2023-05-03T23:56:33.873Z,102236.59
2023-05-03T23:59:01.684Z,102230.25
